Time;durP1;ratioP1;P1;durP2;ratioP2;P2;SDS_P1;SDS_P2;PMS_P1;PMS_P2;Temp;Humidity;BMP_temperature;BMP_pressure;BME280_temperature;BME280_humidity;BME280_pressure;Samples;Min_cycle;Max_cycle;Signal;HPM_P1;HPM_P2
2023/01/20 00:01:02;;;;;;;7.07;3.90;;;;;;;;;;5052717;28;20040;-71
2023/01/20 00:03:28;;;;;;;14.52;3.78;;;;;;;;;;5052560;28;20049;-71
2023/01/20 00:05:54;;;;;;;8.60;3.53;;;;;;;;;;5052413;28;20049;-71
2023/01/20 00:08:20;;;;;;;9.05;3.78;;;;;;;;;;5052620;28;20060;-71
2023/01/20 00:10:46;;;;;;;5.47;3.85;;;;;;;;;;5052403;28;20482;-71
2023/01/20 00:13:12;;;;;;;8.88;3.97;;;;;;;;;;5052459;28;20051;-71
2023/01/20 00:15:38;;;;;;;8.57;4.15;;;;;;;;;;5052549;28;20048;-71
2023/01/20 00:18:05;;;;;;;7.97;4.07;;;;;;;;;;5051395;28;20056;-71
2023/01/20 00:20:31;;;;;;;10.73;4.05;;;;;;;;;;5052138;28;20049;-71
2023/01/20 00:22:57;;;;;;;7.43;4.38;;;;;;;;;;5050587;28;20056;-71
2023/01/20 00:25:23;;;;;;;8.45;4.47;;;;;;;;;;5050502;28;20519;-71
2023/01/20 00:27:52;;;;;;;7.35;4.65;;;;;;;;;;5052268;28;20048;-73
2023/01/20 00:30:18;;;;;;;18.65;5.43;;;;;;;;;;5051871;28;20483;-72
2023/01/20 00:32:44;;;;;;;8.43;5.25;;;;;;;;;;5050529;28;20148;-73
2023/01/20 00:35:13;;;;;;;16.27;6.55;;;;;;;;;;5051894;28;20045;-72
2023/01/20 00:37:39;;;;;;;14.93;8.23;;;;;;;;;;5052067;28;20056;-72
2023/01/20 00:40:06;;;;;;;12.25;7.35;;;;;;;;;;5052063;28;20037;-72
2023/01/20 00:42:32;;;;;;;13.70;7.20;;;;;;;;;;5052017;28;20139;-72
2023/01/20 00:44:58;;;;;;;13.88;7.68;;;;;;;;;;5051979;28;20048;-72
2023/01/20 00:47:24;;;;;;;15.30;7.38;;;;;;;;;;5033997;28;20045;-72
2023/01/20 00:49:50;;;;;;;17.10;7.63;;;;;;;;;;5051637;28;20378;-72
2023/01/20 00:52:19;;;;;;;12.98;7.80;;;;;;;;;;5051966;28;20111;-73
2023/01/20 00:54:45;;;;;;;13.57;8.25;;;;;;;;;;5051857;28;20049;-72
2023/01/20 00:57:11;;;;;;;16.15;8.55;;;-0.20;99.90;;;;;;5051841;28;20045;-73
2023/01/20 00:59:37;;;;;;;17.65;8.32;;;;;;;;;;5051822;28;20056;-72
2023/01/20 01:02:03;;;;;;;17.90;8.93;;;;;;;;;;5051762;28;20156;-72
2023/01/20 01:04:29;;;;;;;19.13;9.00;;;;;;;;;;5051474;28;20041;-72
2023/01/20 01:06:56;;;;;;;19.90;9.75;;;;;;;;;;5051441;28;20501;-73
2023/01/20 01:09:22;;;;;;;18.48;8.93;;;;;;;;;;5050531;28;20070;-74
2023/01/20 01:11:48;;;;;;;19.52;9.85;;;;;;;;;;5050397;28;20053;-72
2023/01/20 01:14:15;;;;;;;23.50;11.55;;;;;;;;;;5050692;28;20044;-72
2023/01/20 01:16:41;;;;;;;;;;;;;;;;;;5052059;28;20081;-72
2023/01/20 01:19:07;;;;;;;24.60;11.15;;;;;;;;;;5051451;28;20352;-73
2023/01/20 01:21:33;;;;;;;23.25;10.65;;;;;;;;;;5051616;28;20081;-73
2023/01/20 01:23:59;;;;;;;19.35;10.45;;;;;;;;;;5051655;28;20047;-72
2023/01/20 01:26:25;;;;;;;19.45;9.75;;;;;;;;;;5050648;28;20037;-73
2023/01/20 01:28:52;;;;;;;17.95;9.65;;;;;;;;;;5051938;28;20053;-73
2023/01/20 01:31:20;;;;;;;17.23;9.27;;;;;;;;;;5051460;28;20064;-73
2023/01/20 01:33:47;;;;;;;17.83;9.10;;;;;;;;;;5051046;28;20489;-73
2023/01/20 01:36:14;;;;;;;19.02;9.32;;;;;;;;;;5054881;28;20071;-74
2023/01/20 01:38:40;;;;;;;16.48;8.82;;;;;;;;;;5054372;28;20048;-74
2023/01/20 01:41:06;;;;;;;20.13;9.00;;;;;;;;;;5055425;28;20066;-73
2023/01/20 01:43:34;;;;;;;17.27;9.93;;;0.40;99.90;;;;;;5054280;28;20049;-74
2023/01/20 01:46:00;;;;;;;20.00;11.18;;;;;;;;;;5055244;28;20045;-74
2023/01/20 01:48:33;;;;;;;22.48;11.55;;;;;;;;;;5054972;28;20088;-74
2023/01/20 01:51:02;;;;;;;21.35;11.27;;;;;;;;;;5055170;28;20045;-75
2023/01/20 01:53:29;;;;;;;20.30;10.90;;;;;;;;;;5055132;28;20053;-75
2023/01/20 01:55:58;;;;;;;19.48;10.82;;;;;;;;;;5054040;28;20045;-75
2023/01/20 01:58:26;;;;;;;20.85;11.05;;;;;;;;;;5054011;28;20052;-74
2023/01/20 02:00:52;;;;;;;19.10;10.80;;;;;;;;;;5053933;28;20076;-75
2023/01/20 02:03:19;;;;;;;22.13;11.13;;;;;;;;;;5054694;28;20156;-75
2023/01/20 02:05:45;;;;;;;22.13;10.65;;;;;;;;;;5054908;28;20269;-75
2023/01/20 02:08:11;;;;;;;;;;;-0.60;99.90;;;;;;5055315;28;20053;-75
2023/01/20 02:10:37;;;;;;;24.23;11.10;;;;;;;;;;5053540;28;19936;-76
2023/01/20 02:13:04;;;;;;;20.77;9.80;;;;;;;;;;5054838;28;20055;-75
2023/01/20 02:15:33;;;;;;;21.20;11.05;;;;;;;;;;5053479;28;20452;-76
2023/01/20 02:18:15;;;;;;;22.98;10.95;;;;;;;;;;5054605;28;20049;-76
2023/01/20 02:21:18;;;;;;;18.40;10.32;;;-0.60;99.90;;;;;;5054699;28;20044;-76
2023/01/20 02:24:02;;;;;;;21.42;10.27;;;;;;;;;;5054570;28;20536;-75
2023/01/20 02:26:45;;;;;;;19.92;10.98;;;-0.20;99.90;;;;;;5054616;28;20463;-76
2023/01/20 02:29:20;;;;;;;21.05;10.60;;;;;;;;;;5053583;28;20139;-76
2023/01/20 02:32:01;;;;;;;22.55;11.80;;;;;;;;;;5052629;28;20059;-76
2023/01/20 02:34:32;;;;;;;21.27;11.25;;;;;;;;;;5053363;28;20090;-76
2023/01/20 02:37:02;;;;;;;22.00;11.05;;;;;;;;;;5054431;28;20139;-76
2023/01/20 02:39:57;;;;;;;21.33;11.68;;;-0.30;99.90;;;;;;5054342;28;20481;-76
2023/01/20 02:42:41;;;;;;;22.17;10.73;;;-0.60;99.90;;;;;;5053212;28;20577;-75
2023/01/20 02:45:41;;;;;;;24.88;11.60;;;-0.20;99.90;;;;;;5052806;28;20178;-76
2023/01/20 02:48:22;;;;;;;21.58;10.70;;;;;;;;;;5052355;28;20049;-75
2023/01/20 02:50:57;;;;;;;21.92;11.98;;;;;;;;;;5053943;28;20477;-75
2023/01/20 02:53:25;;;;;;;21.65;11.32;;;;;;;;;;5054067;28;20052;-75
2023/01/20 02:55:53;;;;;;;20.98;11.45;;;-0.30;99.90;;;;;;5053994;28;20049;-75
2023/01/20 02:58:47;;;;;;;24.20;11.70;;;-0.40;99.90;;;;;;5052885;28;20092;-75
2023/01/20 03:01:16;;;;;;;24.15;11.20;;;;;;;;;;5051952;28;20061;-75
2023/01/20 03:03:44;;;;;;;22.77;11.75;;;;;;;;;;5053852;28;20048;-75
2023/01/20 03:06:14;;;;;;;25.33;11.05;;;;;;;;;;5052773;28;20095;-75
2023/01/20 03:08:40;;;;;;;19.85;10.85;;;;;;;;;;5053699;28;20045;-74
2023/01/20 03:11:08;;;;;;;23.92;10.77;;;;;;;;;;5052608;28;20051;-74
2023/01/20 03:13:49;;;;;;;21.92;10.40;;;;;;;;;;5053665;28;20481;-74
2023/01/20 03:16:18;;;;;;;24.75;11.90;;;-0.40;99.90;;;;;;5053559;28;20088;-74
2023/01/20 03:18:44;;;;;;;21.90;11.23;;;;;;;;;;5053654;28;20091;-74
2023/01/20 03:21:11;;;;;;;22.45;11.50;;;;;;;;;;5053869;28;20110;-74
2023/01/20 03:23:38;;;;;;;20.83;11.30;;;;;;;;;;5053720;28;20503;-74
2023/01/20 03:26:07;;;;;;;21.98;11.73;;;;;;;;;;5053544;28;20080;-74
2023/01/20 03:28:33;;;;;;;23.13;11.15;;;;;;;;;;5053216;28;20547;-74
2023/01/20 03:31:04;;;;;;;26.55;11.93;;;0.00;99.90;;;;;;5053008;28;20494;-74
2023/01/20 03:33:31;;;;;;;23.73;11.52;;;;;;;;;;5053312;28;20464;-73
2023/01/20 03:35:57;;;;;;;;;;;-0.80;99.90;;;;;;5052640;28;20045;-73
2023/01/20 03:38:23;;;;;;;23.05;10.77;;;;;;;;;;5053277;28;19921;-73
2023/01/20 03:41:00;;;;;;;23.90;11.65;;;;;;;;;;5035695;28;20155;-73
2023/01/20 03:43:32;;;;;;;;;;;-0.90;99.90;;;;;;5053397;28;20440;-73
2023/01/20 03:46:02;;;;;;;29.10;12.18;;;;;;;;;;5053097;28;20339;-73
2023/01/20 03:48:33;;;;;;;24.80;12.43;;;-0.30;99.90;;;;;;5052983;28;20052;-73
2023/01/20 03:51:25;;;;;;;25.13;12.10;;;-0.60;99.90;;;;;;5052935;28;20049;-72
2023/01/20 03:54:08;;;;;;;26.23;12.95;;;-0.10;99.90;;;;;;5052891;28;20448;-72
2023/01/20 03:56:40;;;;;;;27.05;12.00;;;;;;;;;;5052854;28;20048;-72
2023/01/20 03:59:08;;;;;;;25.30;12.07;;;;;;;;;;5052322;28;20126;-72
2023/01/20 04:01:36;;;;;;;26.50;12.90;;;;;;;;;;5052772;28;20048;-71
2023/01/20 04:04:04;;;;;;;27.00;12.57;;;-0.80;99.90;;;;;;5051703;28;20048;-72
2023/01/20 04:06:31;;;;;;;30.80;14.18;;;;;;;;;;5052646;28;20102;-72
2023/01/20 04:09:05;;;;;;;33.17;15.18;;;;;;;;;;5051636;28;20045;-72
2023/01/20 04:11:31;;;;;;;38.45;16.80;;;;;;;;;;5052615;28;20048;-71
2023/01/20 04:13:57;;;;;;;32.65;15.80;;;;;;;;;;5051308;28;20087;-71
2023/01/20 04:16:24;;;;;;;35.10;15.18;;;;;;;;;;5052502;28;20081;-71
2023/01/20 04:18:51;;;;;;;38.33;17.75;;;;;;;;;;5052770;28;20044;-71
2023/01/20 04:21:26;;;;;;;35.95;16.92;;;;;;;;;;5056762;28;20049;-71
2023/01/20 04:23:55;;;;;;;38.28;16.67;;;;;;;;;;5056595;28;20044;-71
2023/01/20 04:26:21;;;;;;;36.47;17.55;;;;;;;;;;5055421;28;20048;-71
2023/01/20 04:28:47;;;;;;;40.08;17.40;;;;;;;;;;5056147;28;20132;-71
2023/01/20 04:31:14;;;;;;;46.50;19.10;;;;;;;;;;5054186;28;20068;-71
2023/01/20 04:33:40;;;;;;;45.35;19.90;;;;;;;;;;5056980;28;20064;-71
2023/01/20 04:36:06;;;;;;;43.30;18.75;;;;;;;;;;5052619;28;20175;-70
2023/01/20 04:38:32;;;;;;;46.85;19.58;;;;;;;;;;5052115;28;20059;-71
2023/01/20 04:40:59;;;;;;;50.80;22.00;;;;;;;;;;5052074;28;20040;-70
2023/01/20 04:43:25;;;;;;;40.25;18.15;;;;;;;;;;5051810;28;20079;-71
2023/01/20 04:45:51;;;;;;;42.25;18.95;;;;;;;;;;5050973;28;20156;-71
2023/01/20 04:48:17;;;;;;;47.45;19.98;;;;;;;;;;5051954;28;20052;-71
2023/01/20 04:50:43;;;;;;;53.00;22.13;;;;;;;;;;5050798;28;20040;-70
2023/01/20 04:53:15;;;;;;;50.55;21.75;;;;;;;;;;5051970;28;20067;-70
2023/01/20 04:55:42;;;;;;;55.10;22.58;;;;;;;;;;5051711;28;20053;-70
2023/01/20 04:58:09;;;;;;;62.20;22.63;;;;;;;;;;5051896;28;20098;-70
2023/01/20 05:00:35;;;;;;;65.95;22.63;;;;;;;;;;5051861;28;20106;-70
2023/01/20 05:03:01;;;;;;;87.35;24.42;;;-0.70;99.90;;;;;;5051832;28;20045;-70
2023/01/20 05:05:28;;;;;;;120.45;26.40;;;;;;;;;;5050599;28;20209;-70
2023/01/20 05:07:55;;;;;;;125.90;25.75;;;;;;;;;;5051849;28;20080;-70
2023/01/20 05:10:21;;;;;;;110.65;25.98;;;;;;;;;;5053567;28;20080;-70
2023/01/20 05:12:48;;;;;;;120.88;27.15;;;;;;;;;;5055985;28;20202;-70
2023/01/20 05:15:14;;;;;;;150.27;28.52;;;;;;;;;;5054946;28;20048;-70
2023/01/20 05:17:40;;;;;;;127.28;26.85;;;;;;;;;;5056007;28;20424;-71
2023/01/20 05:20:06;;;;;;;145.65;27.95;;;;;;;;;;5054475;28;20365;-71
2023/01/20 05:22:32;;;;;;;104.35;23.15;;;;;;;;;;5055701;28;20141;-70
2023/01/20 05:24:59;;;;;;;158.93;26.45;;;;;;;;;;5055377;28;20055;-70
2023/01/20 05:27:25;;;;;;;148.02;28.48;;;;;;;;;;5054594;28;20461;-70
2023/01/20 05:29:51;;;;;;;154.43;26.25;;;;;;;;;;5055260;28;20494;-70
2023/01/20 05:32:17;;;;;;;193.20;30.35;;;;;;;;;;5055127;28;20063;-70
2023/01/20 05:34:44;;;;;;;149.82;25.00;;;;;;;;;;5055560;28;20041;-71
2023/01/20 05:37:10;;;;;;;130.75;26.73;;;;;;;;;;5055500;28;20136;-71
2023/01/20 05:39:36;;;;;;;126.45;26.65;;;;;;;;;;5055121;28;20061;-70
2023/01/20 05:42:02;;;;;;;227.38;30.10;;;;;;;;;;5054271;28;20485;-71
2023/01/20 05:44:28;;;;;;;175.00;26.52;;;;;;;;;;5054271;28;20049;-71
2023/01/20 05:46:54;;;;;;;178.38;27.63;;;;;;;;;;5055242;28;20056;-71
2023/01/20 05:49:20;;;;;;;147.23;26.33;;;;;;;;;;5055195;28;20103;-71
2023/01/20 05:51:46;;;;;;;173.27;26.88;;;;;;;;;;5053928;28;20434;-71
2023/01/20 05:54:12;;;;;;;182.05;26.77;;;;;;;;;;5054960;28;20416;-71
2023/01/20 05:56:38;;;;;;;233.38;29.88;;;;;;;;;;5053735;28;20079;-71
2023/01/20 05:59:05;;;;;;;131.48;24.90;;;;;;;;;;5054961;28;20041;-71
2023/01/20 06:01:31;;;;;;;153.52;25.80;;;;;;;;;;5055003;28;20051;-71
2023/01/20 06:03:57;;;;;;;118.10;23.38;;;;;;;;;;5055013;28;20087;-71
2023/01/20 06:06:23;;;;;;;150.50;23.92;;;;;;;;;;5053917;28;20098;-71
2023/01/20 06:08:51;;;;;;;225.88;31.05;;;;;;;;;;5054695;28;20056;-70
2023/01/20 06:11:17;;;;;;;179.98;28.10;;;0.50;99.90;;;;;;5053573;28;20591;-72
2023/01/20 06:13:43;;;;;;;108.68;23.73;;;;;;;;;;5054842;28;20124;-72
2023/01/20 06:16:09;;;;;;;144.73;24.00;;;;;;;;;;5054832;28;20060;-72
2023/01/20 06:18:35;;;;;;;134.77;24.35;;;;;;;;;;5054697;28;20525;-72
2023/01/20 06:21:01;;;;;;;119.35;23.25;;;;;;;;;;5054882;28;20041;-72
2023/01/20 06:23:27;;;;;;;115.70;23.50;;;;;;;;;;5054376;28;20226;-72
2023/01/20 06:25:58;;;;;;;108.35;23.67;;;;;;;;;;5054549;28;20139;-72
2023/01/20 06:28:24;;;;;;;119.13;23.52;;;;;;;;;;5053425;28;20053;-71
2023/01/20 06:30:50;;;;;;;136.45;25.73;;;;;;;;;;5054176;28;20393;-72
2023/01/20 06:33:16;;;;;;;119.40;24.63;;;;;;;;;;5053518;28;20171;-72
2023/01/20 06:35:42;;;;;;;163.13;25.73;;;;;;;;;;5054384;28;20056;-71
2023/01/20 06:38:08;;;;;;;107.38;23.50;;;;;;;;;;5053967;28;20574;-72
2023/01/20 06:40:34;;;;;;;129.82;24.70;;;;;;;;;;5052936;28;20493;-72
2023/01/20 06:43:02;;;;;;;225.93;30.58;;;;;;;;;;5054316;28;20396;-72
2023/01/20 06:45:28;;;;;;;158.45;27.63;;;;;;;;;;5054122;28;20053;-72
2023/01/20 06:47:54;;;;;;;109.80;24.88;;;0.50;99.90;;;;;;5054172;28;20053;-72
2023/01/20 06:50:20;;;;;;;188.35;31.88;;;;;;;;;;5054020;28;20053;-72
2023/01/20 06:52:46;;;;;;;168.77;26.88;;;;;;;;;;5052792;28;20519;-72
2023/01/20 06:55:12;;;;;;;123.45;25.05;;;;;;;;;;5054034;28;20067;-71
2023/01/20 06:57:37;;;;;;;111.18;25.17;;;0.30;99.90;;;;;;5054004;28;20190;-72
2023/01/20 07:00:03;;;;;;;106.50;26.00;;;0.00;99.90;;;;;;5052898;28;20057;-72
2023/01/20 07:02:30;;;;;;;114.82;26.95;;;;;;;;;;5053918;28;20084;-72
2023/01/20 07:04:56;;;;;;;99.35;26.15;;;;;;;;;;5036401;28;20049;-72
2023/01/20 07:07:22;;;;;;;105.90;26.48;;;;;;;;;;5053800;28;20059;-73
2023/01/20 07:09:49;;;;;;;89.07;25.73;;;;;;;;;;5053994;28;20049;-72
2023/01/20 07:12:15;;;;;;;105.53;27.52;;;;;;;;;;5052746;28;20072;-71
2023/01/20 07:14:41;;;;;;;91.15;26.05;;;;;;;;;;5053706;28;20123;-72
2023/01/20 07:17:11;;;;;;;100.28;26.55;;;0.30;99.90;;;;;;5053679;28;20083;-72
2023/01/20 07:19:37;;;;;;;104.65;26.92;;;;;;;;;;5053570;28;20052;-72
2023/01/20 07:22:03;;;;;;;100.10;25.38;;;;;;;;;;5053382;28;20448;-72
2023/01/20 07:24:28;;;;;;;100.15;26.67;;;0.10;99.90;;;;;;5053467;28;20131;-72
2023/01/20 07:26:54;;;;;;;106.73;27.73;;;;;;;;;;5052105;28;20257;-72
2023/01/20 07:29:20;;;;;;;110.53;28.60;;;;;;;;;;5053343;28;20279;-72
2023/01/20 07:31:47;;;;;;;104.55;26.77;;;;;;;;;;5051505;28;20064;-72
2023/01/20 07:34:13;;;;;;;99.00;25.92;;;;;;;;;;5052887;28;20057;-72
2023/01/20 07:36:38;;;;;;;110.63;28.15;;;0.40;99.90;;;;;;5035375;28;20056;-72
2023/01/20 07:39:04;;;;;;;83.90;26.57;;;;;;;;;;5052992;28;20045;-72
2023/01/20 07:41:30;;;;;;;95.78;27.85;;;;;;;;;;5053143;28;20279;-72
2023/01/20 07:43:56;;;;;;;103.03;27.10;;;;;;;;;;5053061;28;20099;-72
2023/01/20 07:46:23;;;;;;;106.25;27.75;;;;;;;;;;5053220;28;20044;-72
2023/01/20 07:48:49;;;;;;;97.97;28.10;;;;;;;;;;5053011;28;20056;-71
2023/01/20 07:51:15;;;;;;;100.57;27.33;;;0.20;99.90;;;;;;5052350;28;20378;-72
2023/01/20 07:53:45;;;;;;;97.32;26.90;;;0.80;99.90;;;;;;5053006;28;20052;-72
2023/01/20 07:56:13;;;;;;;94.32;28.33;;;;;;;;;;5052828;28;20048;-72
2023/01/20 07:58:39;;;;;;;107.10;28.70;;;;;;;;;;5052748;28;20056;-72
2023/01/20 08:01:09;;;;;;;101.30;29.30;;;;;;;;;;5052740;28;20045;-72
2023/01/20 08:03:36;;;;;;;105.03;30.88;;;;;;;;;;5052813;28;20040;-72
2023/01/20 08:06:05;;;;;;;91.75;27.13;;;;;;;;;;5052455;28;20063;-72
2023/01/20 08:08:32;;;;;;;96.72;29.85;;;;;;;;;;5052670;28;20098;-72
2023/01/20 08:11:00;;;;;;;102.07;28.92;;;0.70;99.90;;;;;;5052444;28;20437;-72
2023/01/20 08:13:26;;;;;;;104.18;29.30;;;;;;;;;;5034825;28;20051;-72
2023/01/20 08:15:52;;;;;;;103.20;29.27;;;;;;;;;;5052411;28;20055;-72
2023/01/20 08:18:18;;;;;;;100.75;29.35;;;;;;;;;;5052425;28;20440;-72
2023/01/20 08:20:44;;;;;;;107.30;31.30;;;;;;;;;;5052066;28;20041;-72
2023/01/20 08:23:10;;;;;;;102.00;29.85;;;;;;;;;;5052112;28;20596;-72
2023/01/20 08:25:36;;;;;;;95.32;29.50;;;0.70;99.90;;;;;;5052053;28;20457;-72
2023/01/20 08:28:02;;;;;;;96.43;28.88;;;;;;;;;;5052555;28;20048;-72
2023/01/20 08:30:27;;;;;;;94.03;31.45;;;0.70;99.90;;;;;;5052083;28;20057;-72
2023/01/20 08:32:54;;;;;;;104.80;30.13;;;;;;;;;;5050427;28;20191;-72
2023/01/20 08:35:20;;;;;;;104.85;30.27;;;;;;;;;;5051934;28;20404;-72
2023/01/20 08:37:46;;;;;;;100.97;31.92;;;;;;;;;;5052240;28;20049;-72
2023/01/20 08:40:12;;;;;;;97.00;29.10;;;;;;;;;;5052082;28;20053;-72
2023/01/20 08:42:38;;;;;;;96.90;30.17;;;;;;;;;;5052042;28;20134;-72
2023/01/20 08:45:05;;;;;;;92.47;30.80;;;;;;;;;;5050196;28;20099;-72
2023/01/20 08:47:34;;;;;;;95.00;32.30;;;;;;;;;;5052021;28;20087;-72
2023/01/20 08:50:00;;;;;;;91.47;29.10;;;0.70;99.90;;;;;;5067530;28;20386;-72
2023/01/20 08:52:27;;;;;;;104.07;30.55;;;;;;;;;;5051934;28;20040;-72
2023/01/20 08:54:53;;;;;;;102.35;29.52;;;;;;;;;;5050799;28;20130;-72
2023/01/20 08:57:19;;;;;;;89.63;28.70;;;;;;;;;;5052185;28;20051;-72
2023/01/20 08:59:46;;;;;;;95.22;30.33;;;;;;;;;;5051995;28;20040;-72
2023/01/20 09:02:12;;;;;;;;;;;0.50;99.90;;;;;;5052124;28;20524;-73
2023/01/20 09:04:38;;;;;;;85.75;28.27;;;;;;;;;;5050798;28;19929;-72
2023/01/20 09:07:04;;;;;;;87.45;29.25;;;;;;;;;;5051811;28;20132;-72
2023/01/20 09:09:30;;;;;;;82.65;28.98;;;0.90;99.90;;;;;;5051791;28;20045;-78
2023/01/20 09:11:57;;;;;;;81.05;27.00;;;;;;;;;;5051761;28;20040;-73
2023/01/20 09:14:24;;;;;;;84.28;27.58;;;;;;;;;;5050326;28;20052;-73
2023/01/20 09:16:50;;;;;;;77.90;27.15;;;;;;;;;;5051436;28;20045;-73
2023/01/20 09:19:16;;;;;;;81.78;28.60;;;;;;;;;;5051666;28;20045;-73
2023/01/20 09:21:42;;;;;;;87.28;27.98;;;;;;;;;;5051629;28;20041;-75
2023/01/20 09:24:08;;;;;;;;;;;0.30;99.90;;;;;;5051996;28;20057;-73
2023/01/20 09:26:37;;;;;;;83.68;27.73;;;;;;;;;;5050634;28;20487;-73
2023/01/20 09:29:09;;;;;;;79.45;26.65;;;;;;;;;;5051349;28;20404;-73
2023/01/20 09:31:36;;;;;;;82.55;27.20;;;;;;;;;;5050885;28;20080;-73
2023/01/20 09:34:02;;;;;;;85.88;27.65;;;;;;;;;;5051537;28;20069;-73
2023/01/20 09:36:28;;;;;;;87.93;31.55;;;1.00;99.90;;;;;;5050497;28;20056;-73
2023/01/20 09:44:43;;;;;;;84.78;26.77;;;1.00;99.90;;;;;;5051549;28;20474;-73
2023/01/20 09:47:18;;;;;;;78.25;27.40;;;;;;;;;;5050139;28;20098;-73
2023/01/20 09:53:03;;;;;;;73.10;25.75;;;;;;;;;;5051449;28;20456;-73
2023/01/20 09:55:56;;;;;;;74.53;23.70;;;0.60;99.90;;;;;;5051809;28;20485;-73
2023/01/20 09:58:36;;;;;;;77.18;25.20;;;;;;;;;;5055149;28;20140;-73
2023/01/20 10:01:05;;;;;;;78.28;25.83;;;;;;;;;;5054824;28;20037;-73
2023/01/20 10:03:36;;;;;;;79.88;27.15;;;;;;;;;;5053752;28;20071;-73
2023/01/20 10:06:06;;;;;;;73.50;28.02;;;;;;;;;;5054690;28;20482;-73
2023/01/20 10:08:35;;;;;;;73.80;26.63;;;;;;;;;;5053926;28;20053;-74
2023/01/20 10:11:27;;;;;;;76.22;25.70;;;;;;;;;;5037012;28;20119;-74
2023/01/20 10:14:19;;;;;;;80.53;27.13;;;0.80;99.90;;;;;;5052548;28;20068;-73
2023/01/20 10:17:15;;;;;;;68.43;25.23;;;1.20;99.90;;;;;;5054661;28;20114;-73
2023/01/20 10:19:48;;;;;;;68.72;25.17;;;0.60;99.90;;;;;;5054785;28;20441;-74
2023/01/20 10:22:41;;;;;;;75.88;26.83;;;0.60;99.90;;;;;;5054752;28;20040;-75
2023/01/20 10:25:16;;;;;;;68.57;25.98;;;;;;;;;;5050419;28;20405;-74
2023/01/20 10:27:49;;;;;;;67.68;26.20;;;;;;;;;;5053306;28;20107;-75
2023/01/20 10:30:15;;;;;;;68.80;25.23;;;;;;;;;;5054227;28;20068;-74
2023/01/20 10:32:52;;;;;;;69.70;24.98;;;;;;;;;;5054019;28;20083;-75
2023/01/20 10:35:19;;;;;;;;;;;0.80;99.90;;;;;;5054615;28;20543;-74
2023/01/20 10:37:45;;;;;;;64.93;24.52;;;;;;;;;;5054413;28;19983;-74
2023/01/20 10:40:17;;;;;;;65.75;27.13;;;;;;;;;;5036842;28;20535;-75
2023/01/20 10:42:48;;;;;;;68.80;25.38;;;1.10;99.90;;;;;;5052911;28;20103;-74
2023/01/20 10:45:19;;;;;;;70.60;25.20;;;;;;;;;;5036508;28;20084;-74
2023/01/20 10:48:08;;;;;;;67.15;23.13;;;;;;;;;;5054335;28;20096;-74
2023/01/20 10:50:42;;;;;;;67.80;23.55;;;;;;;;;;5053661;28;20459;-74
2023/01/20 10:53:42;;;;;;;68.35;25.92;;;1.20;99.90;;;;;;5054169;28;20052;-73
2023/01/20 10:56:14;;;;;;;60.55;23.52;;;;;;;;;;5054178;28;20053;-74
2023/01/20 10:58:43;;;;;;;61.67;22.98;;;;;;;;;;5052818;28;20099;-73
2023/01/20 11:01:12;;;;;;;63.55;23.23;;;;;;;;;;5054284;28;20049;-74
2023/01/20 11:03:45;;;;;;;58.90;23.20;;;1.50;99.90;;;;;;5053682;28;20560;-73
2023/01/20 11:06:24;;;;;;;60.70;22.33;;;1.30;99.90;;;;;;5053875;28;20049;-73
2023/01/20 11:08:50;;;;;;;64.43;23.40;;;;;;;;;;5053027;28;20128;-74
2023/01/20 11:11:25;;;;;;;55.13;22.15;;;1.60;99.90;;;;;;5053495;28;20423;-73
2023/01/20 11:13:51;;;;;;;65.72;22.60;;;;;;;;;;5052250;28;20375;-73
2023/01/20 11:16:17;;;;;;;;;;;;;;;;;;5054176;28;20107;-72
2023/01/20 11:18:54;;;;;;;65.47;22.38;;;;;;;;;;5052646;28;20382;-72
2023/01/20 11:21:22;;;;;;;61.83;22.20;;;;;;;;;;5053766;28;20053;-72
2023/01/20 11:23:56;;;;;;;66.80;23.45;;;1.70;99.90;;;;;;5053505;28;20362;-72
2023/01/20 11:26:22;;;;;;;63.75;21.88;;;;;;;;;;5053494;28;20136;-72
2023/01/20 11:28:51;;;;;;;53.72;21.40;;;;;;;;;;5053202;28;20045;-73
2023/01/20 11:31:17;;;;;;;57.55;23.80;;;;;;;;;;5053020;28;20053;-72
2023/01/20 11:34:13;;;;;;;57.58;22.80;;;;;;;;;;5052902;28;20061;-72
2023/01/20 11:36:39;;;;;;;54.15;21.92;;;;;;;;;;5044410;28;20075;-71
2023/01/20 11:39:07;;;;;;;55.67;22.70;;;;;;;;;;5053323;28;20049;-72
2023/01/20 11:41:33;;;;;;;59.15;22.55;;;;;;;;;;5052962;28;20052;-72
2023/01/20 11:44:00;;;;;;;60.95;22.05;;;2.00;99.90;;;;;;5053113;28;20041;-71
2023/01/20 11:46:32;;;;;;;53.28;22.00;;;1.70;99.90;;;;;;5053105;28;20040;-73
2023/01/20 11:49:15;;;;;;;53.72;20.75;;;;;;;;;;5053162;28;20056;-72
2023/01/20 11:51:47;;;;;;;52.30;19.88;;;2.00;99.90;;;;;;5052880;28;20045;-72
2023/01/20 11:54:29;;;;;;;46.47;17.17;;;;;;;;;;5051933;28;20433;-71
2023/01/20 11:57:03;;;;;;;46.65;16.90;;;;;;;;;;5052685;28;20041;-72
2023/01/20 11:59:31;;;;;;;48.30;18.45;;;1.70;99.90;;;;;;5052931;28;20485;-72
2023/01/20 12:02:00;;;;;;;42.38;17.38;;;1.60;99.90;;;;;;5052766;28;20041;-71
2023/01/20 12:04:38;;;;;;;45.47;17.58;;;;;;;;;;5052725;28;20049;-72
2023/01/20 12:07:10;;;;;;;46.20;17.95;;;;;;;;;;5052709;28;20045;-72
2023/01/20 12:09:38;;;;;;;51.17;18.60;;;;;;;;;;5052699;28;20385;-71
2023/01/20 12:12:16;;;;;;;48.45;18.70;;;1.70;99.90;;;;;;5052308;28;20096;-72
2023/01/20 12:14:50;;;;;;;48.75;18.80;;;;;;;;;;5052671;28;20103;-71
2023/01/20 12:17:36;;;;;;;51.20;19.40;;;2.20;99.90;;;;;;5051542;28;20049;-71
2023/01/20 12:20:05;;;;;;;47.03;17.67;;;2.20;99.90;;;;;;5052369;28;20458;-71
2023/01/20 12:22:47;;;;;;;48.10;18.02;;;1.90;99.90;;;;;;5052167;28;20497;-71
2023/01/20 12:25:16;;;;;;;48.03;20.52;;;1.80;99.90;;;;;;5052106;28;20053;-71
2023/01/20 12:27:47;;;;;;;56.80;19.33;;;;;;;;;;5052418;28;20041;-71
2023/01/20 12:30:18;;;;;;;51.63;20.23;;;;;;;;;;5052330;28;20045;-72
2023/01/20 12:32:45;;;;;;;52.38;21.23;;;;;;;;;;5051913;28;20118;-71
2023/01/20 12:35:14;;;;;;;55.90;21.65;;;;;;;;;;5052223;28;20103;-71
2023/01/20 12:37:55;;;;;;;54.42;21.63;;;2.00;99.90;;;;;;5052201;28;20045;-71
2023/01/20 12:40:39;;;;;;;59.38;22.80;;;1.80;99.90;;;;;;5052002;28;20037;-72
2023/01/20 12:43:44;;;;;;;62.33;24.65;;;;;;;;;;5050679;28;20409;-74
2023/01/20 12:46:10;;;;;;;54.42;21.52;;;;;;;;;;5009906;28;20049;-72
2023/01/20 12:48:36;;;;;;;52.45;20.92;;;;;;;;;;5010017;28;20057;-71
2023/01/20 12:51:24;;;;;;;54.22;21.02;;;1.80;99.90;;;;;;5029737;28;20401;-72
2023/01/20 12:53:53;;;;;;;53.00;22.67;;;1.80;99.90;;;;;;5052336;28;20131;-72
2023/01/20 12:56:50;;;;;;;51.35;19.42;;;1.80;99.90;;;;;;5050834;28;20088;-72
2023/01/20 12:59:35;;;;;;;53.45;19.83;;;1.70;99.90;;;;;;5051803;28;20135;-72
2023/01/20 13:02:04;;;;;;;51.70;20.27;;;;;;;;;;5069269;28;20048;-73
2023/01/20 13:04:50;;;;;;;49.42;20.17;;;2.00;99.90;;;;;;5071288;28;20056;-73
2023/01/20 13:07:16;;;;;;;50.63;19.60;;;;;;;;;;5063211;28;20053;-72
2023/01/20 13:10:02;;;;;;;43.75;17.83;;;;;;;;;;5071705;28;20051;-72
2023/01/20 13:12:40;;;;;;;47.00;19.85;;;1.70;99.90;;;;;;5070916;28;20131;-72
2023/01/20 13:15:12;;;;;;;50.28;21.05;;;;;;;;;;5071871;28;20048;-72
2023/01/20 13:17:42;;;;;;;54.45;20.10;;;;;;;;;;5071878;28;20502;-72
2023/01/20 13:20:29;;;;;;;48.75;20.30;;;1.60;99.90;;;;;;5071766;28;20056;-73
2023/01/20 13:22:55;;;;;;;54.67;19.10;;;;;;;;;;5071787;28;20186;-72
2023/01/20 13:25:22;;;;;;;52.20;20.58;;;1.70;99.90;;;;;;5070165;28;20387;-72
2023/01/20 13:27:49;;;;;;;;;;;;;;;;;;5067721;28;20056;-80
2023/01/20 13:30:34;;;;;;;;;;;1.60;99.90;;;;;;5069921;28;20492;-74
2023/01/20 13:33:23;;;;;;;58.55;23.60;;;1.40;99.90;;;;;;5074140;28;19951;-74
2023/01/20 13:35:50;;;;;;;51.05;20.65;;;;;;;;;;5075603;28;20404;-73
2023/01/20 13:38:29;;;;;;;49.90;20.63;;;;;;;;;;5075135;28;20726;-72
2023/01/20 13:40:58;;;;;;;53.67;20.42;;;1.40;99.90;;;;;;5074407;28;20120;-74
2023/01/20 13:43:25;;;;;;;53.03;22.58;;;2.00;99.90;;;;;;5074909;28;20044;-76
2023/01/20 13:46:02;;;;;;;53.53;21.90;;;1.40;99.90;;;;;;5075277;28;20563;-74
2023/01/20 13:48:33;;;;;;;53.63;21.52;;;1.60;99.90;;;;;;5073881;28;20051;-75
2023/01/20 13:51:19;;;;;;;52.00;21.27;;;;;;;;;;5075040;28;20463;-74
2023/01/20 13:53:45;;;;;;;53.95;21.60;;;;;;;;;;5064303;28;20056;-78
2023/01/20 13:56:31;;;;;;;69.38;29.00;;;1.70;99.90;;;;;;5073641;28;20051;-76
2023/01/20 13:58:57;;;;;;;48.90;21.05;;;;;;;;;;5073542;28;20477;-77
2023/01/20 14:01:24;;;;;;;56.33;22.80;;;;;;;;;;5074799;28;20370;-79
2023/01/20 14:03:50;;;;;;;;;;;;;;;;;;5074121;28;20052;-72
2023/01/20 14:06:20;;;;;;;54.10;21.10;;;;;;;;;;5073969;28;19920;-74
2023/01/20 14:08:50;;;;;;;53.78;20.88;;;;;;;;;;5074120;28;20497;-74
2023/01/20 14:11:22;;;;;;;52.38;20.63;;;1.30;99.90;;;;;;5074699;28;20037;-73
2023/01/20 14:14:00;;;;;;;52.38;21.35;;;1.90;99.90;;;;;;5074984;28;20133;-74
2023/01/20 14:16:26;;;;;;;52.03;21.63;;;;;;;;;;5074798;28;20059;-75
2023/01/20 14:19:00;;;;;;;48.03;20.48;;;1.80;99.90;;;;;;5074865;28;20049;-73